sensor_id;sensor_type;location;lat;lon;timestamp;temperature;humidity
25250;DHT22;13201;51.148;13.738;2023-02-28T00:00:13;1.90;99.90
25250;DHT22;13201;51.148;13.738;2023-02-28T00:02:41;1.80;99.90
25250;DHT22;13201;51.148;13.738;2023-02-28T00:05:08;1.80;99.90
25250;DHT22;13201;51.148;13.738;2023-02-28T00:07:35;1.80;99.90
25250;DHT22;13201;51.148;13.738;2023-02-28T00:10:01;1.80;99.90
25250;DHT22;13201;51.148;13.738;2023-02-28T00:12:27;1.70;99.90
25250;DHT22;13201;51.148;13.738;2023-02-28T00:14:53;1.80;99.90
25250;DHT22;13201;51.148;13.738;2023-02-28T00:17:19;1.90;99.90
25250;DHT22;13201;51.148;13.738;2023-02-28T00:19:50;1.90;99.90
25250;DHT22;13201;51.148;13.738;2023-02-28T00:22:17;1.90;99.90
25250;DHT22;13201;51.148;13.738;2023-02-28T00:24:43;1.90;99.90
25250;DHT22;13201;51.148;13.738;2023-02-28T00:27:09;1.80;99.90
25250;DHT22;13201;51.148;13.738;2023-02-28T00:29:36;1.70;99.90
25250;DHT22;13201;51.148;13.738;2023-02-28T00:32:02;1.50;99.90
25250;DHT22;13201;51.148;13.738;2023-02-28T00:34:27;1.50;99.90
25250;DHT22;13201;51.148;13.738;2023-02-28T00:36:54;1.50;99.90
25250;DHT22;13201;51.148;13.738;2023-02-28T00:39:21;1.50;99.90
25250;DHT22;13201;51.148;13.738;2023-02-28T00:41:46;1.50;99.90
25250;DHT22;13201;51.148;13.738;2023-02-28T00:44:12;1.50;99.90
25250;DHT22;13201;51.148;13.738;2023-02-28T00:46:38;1.60;99.90
25250;DHT22;13201;51.148;13.738;2023-02-28T00:49:03;1.70;99.90
25250;DHT22;13201;51.148;13.738;2023-02-28T00:51:29;1.60;99.90
25250;DHT22;13201;51.148;13.738;2023-02-28T00:53:55;1.60;99.90
25250;DHT22;13201;51.148;13.738;2023-02-28T00:56:21;1.40;99.90
25250;DHT22;13201;51.148;13.738;2023-02-28T00:58:46;1.40;99.90
25250;DHT22;13201;51.148;13.738;2023-02-28T01:01:12;1.50;99.90
25250;DHT22;13201;51.148;13.738;2023-02-28T01:03:38;1.30;99.90
25250;DHT22;13201;51.148;13.738;2023-02-28T01:30:57;0.00;99.90
25250;DHT22;13201;51.148;13.738;2023-02-28T01:33:22;-0.10;99.90
25250;DHT22;13201;51.148;13.738;2023-02-28T01:35:48;0.00;99.90
25250;DHT22;13201;51.148;13.738;2023-02-28T01:38:14;0.00;99.90
25250;DHT22;13201;51.148;13.738;2023-02-28T01:40:40;0.00;99.90
25250;DHT22;13201;51.148;13.738;2023-02-28T01:45:53;0.20;99.90
25250;DHT22;13201;51.148;13.738;2023-02-28T01:48:23;0.40;99.90
25250;DHT22;13201;51.148;13.738;2023-02-28T01:50:51;0.40;99.90
25250;DHT22;13201;51.148;13.738;2023-02-28T01:53:21;0.50;99.90
25250;DHT22;13201;51.148;13.738;2023-02-28T01:55:49;0.60;99.90
25250;DHT22;13201;51.148;13.738;2023-02-28T01:58:16;0.40;99.90
25250;DHT22;13201;51.148;13.738;2023-02-28T02:00:42;0.50;99.90
25250;DHT22;13201;51.148;13.738;2023-02-28T02:03:13;0.40;99.90
25250;DHT22;13201;51.148;13.738;2023-02-28T02:05:40;0.50;99.90
25250;DHT22;13201;51.148;13.738;2023-02-28T02:08:12;0.60;99.90
25250;DHT22;13201;51.148;13.738;2023-02-28T02:11:05;0.40;99.90
25250;DHT22;13201;51.148;13.738;2023-02-28T02:35:55;0.50;99.90
25250;DHT22;13201;51.148;13.738;2023-02-28T02:43:51;0.50;99.90
25250;DHT22;13201;51.148;13.738;2023-02-28T02:46:21;0.40;99.90
25250;DHT22;13201;51.148;13.738;2023-02-28T02:48:48;0.40;99.90
25250;DHT22;13201;51.148;13.738;2023-02-28T02:51:17;0.30;99.90
25250;DHT22;13201;51.148;13.738;2023-02-28T02:53:56;0.40;99.90
25250;DHT22;13201;51.148;13.738;2023-02-28T02:56:27;0.30;99.90
25250;DHT22;13201;51.148;13.738;2023-02-28T02:59:01;0.40;99.90
25250;DHT22;13201;51.148;13.738;2023-02-28T03:01:29;0.20;99.90
25250;DHT22;13201;51.148;13.738;2023-02-28T03:04:17;0.20;99.90
25250;DHT22;13201;51.148;13.738;2023-02-28T03:06:43;0.20;99.90
25250;DHT22;13201;51.148;13.738;2023-02-28T03:09:09;0.20;99.90
25250;DHT22;13201;51.148;13.738;2023-02-28T03:11:36;0.20;99.90
25250;DHT22;13201;51.148;13.738;2023-02-28T03:22:02;-0.10;99.90
25250;DHT22;13201;51.148;13.738;2023-02-28T03:24:43;0.00;99.90
25250;DHT22;13201;51.148;13.738;2023-02-28T03:28:16;0.00;99.90
25250;DHT22;13201;51.148;13.738;2023-02-28T03:30:26;-0.20;99.90
25250;DHT22;13201;51.148;13.738;2023-02-28T03:33:32;-0.20;99.90
25250;DHT22;13201;51.148;13.738;2023-02-28T03:36:04;-0.20;99.90
25250;DHT22;13201;51.148;13.738;2023-02-28T03:38:38;-0.30;99.90
25250;DHT22;13201;51.148;13.738;2023-02-28T03:41:22;-0.30;99.90
25250;DHT22;13201;51.148;13.738;2023-02-28T03:44:00;-0.30;99.90
25250;DHT22;13201;51.148;13.738;2023-02-28T03:46:32;-0.20;99.90
25250;DHT22;13201;51.148;13.738;2023-02-28T03:49:16;-0.10;99.90
25250;DHT22;13201;51.148;13.738;2023-02-28T03:51:43;-0.30;99.90
25250;DHT22;13201;51.148;13.738;2023-02-28T03:54:15;-0.40;99.90
25250;DHT22;13201;51.148;13.738;2023-02-28T03:56:54;-0.30;99.90
25250;DHT22;13201;51.148;13.738;2023-02-28T03:59:39;-0.20;99.90
25250;DHT22;13201;51.148;13.738;2023-02-28T04:02:07;-0.30;99.90
25250;DHT22;13201;51.148;13.738;2023-02-28T04:04:33;-0.40;99.90
25250;DHT22;13201;51.148;13.738;2023-02-28T04:07:08;-0.40;99.90
25250;DHT22;13201;51.148;13.738;2023-02-28T04:09:34;-0.60;99.90
25250;DHT22;13201;51.148;13.738;2023-02-28T04:12:00;-0.50;99.90
25250;DHT22;13201;51.148;13.738;2023-02-28T04:14:26;-0.50;99.90
25250;DHT22;13201;51.148;13.738;2023-02-28T04:16:52;-0.50;99.90
25250;DHT22;13201;51.148;13.738;2023-02-28T04:19:17;-0.60;99.90
25250;DHT22;13201;51.148;13.738;2023-02-28T04:21:48;-0.60;99.90
25250;DHT22;13201;51.148;13.738;2023-02-28T04:24:17;-0.60;99.90
25250;DHT22;13201;51.148;13.738;2023-02-28T04:26:48;-0.60;99.90
25250;DHT22;13201;51.148;13.738;2023-02-28T04:29:23;-0.60;99.90
25250;DHT22;13201;51.148;13.738;2023-02-28T04:31:49;-0.60;99.90
25250;DHT22;13201;51.148;13.738;2023-02-28T04:34:16;-0.70;99.90
25250;DHT22;13201;51.148;13.738;2023-02-28T04:36:42;-0.80;99.90
25250;DHT22;13201;51.148;13.738;2023-02-28T04:39:08;-0.70;99.90
25250;DHT22;13201;51.148;13.738;2023-02-28T04:41:35;-0.70;99.90
25250;DHT22;13201;51.148;13.738;2023-02-28T04:44:00;-0.70;99.90
25250;DHT22;13201;51.148;13.738;2023-02-28T04:46:26;-0.70;99.90
25250;DHT22;13201;51.148;13.738;2023-02-28T04:48:52;-0.90;99.90
25250;DHT22;13201;51.148;13.738;2023-02-28T04:51:19;-0.90;99.90
25250;DHT22;13201;51.148;13.738;2023-02-28T04:53:45;-0.80;99.90
25250;DHT22;13201;51.148;13.738;2023-02-28T04:56:13;-0.90;99.90
25250;DHT22;13201;51.148;13.738;2023-02-28T04:58:40;-1.00;99.90
25250;DHT22;13201;51.148;13.738;2023-02-28T05:03:44;-1.20;99.90
25250;DHT22;13201;51.148;13.738;2023-02-28T05:06:12;-1.10;99.90
25250;DHT22;13201;51.148;13.738;2023-02-28T05:08:38;-1.20;99.90
25250;DHT22;13201;51.148;13.738;2023-02-28T05:11:05;-1.20;99.90
25250;DHT22;13201;51.148;13.738;2023-02-28T05:13:31;-1.10;99.90
25250;DHT22;13201;51.148;13.738;2023-02-28T05:15:57;-1.10;99.90
25250;DHT22;13201;51.148;13.738;2023-02-28T05:18:22;-1.20;99.90
25250;DHT22;13201;51.148;13.738;2023-02-28T05:20:48;-1.20;99.90
25250;DHT22;13201;51.148;13.738;2023-02-28T05:23:15;-1.20;99.90
25250;DHT22;13201;51.148;13.738;2023-02-28T05:25:41;-1.20;99.90
25250;DHT22;13201;51.148;13.738;2023-02-28T05:28:07;-1.20;99.90
25250;DHT22;13201;51.148;13.738;2023-02-28T05:30:33;-1.20;99.90
25250;DHT22;13201;51.148;13.738;2023-02-28T05:32:59;-1.20;99.90
25250;DHT22;13201;51.148;13.738;2023-02-28T05:35:25;-1.20;99.90
25250;DHT22;13201;51.148;13.738;2023-02-28T05:37:51;-1.20;99.90
25250;DHT22;13201;51.148;13.738;2023-02-28T05:40:17;-1.20;99.90
25250;DHT22;13201;51.148;13.738;2023-02-28T05:42:44;-1.30;99.90
25250;DHT22;13201;51.148;13.738;2023-02-28T05:45:10;-1.30;99.90
25250;DHT22;13201;51.148;13.738;2023-02-28T05:47:36;-1.40;99.90
25250;DHT22;13201;51.148;13.738;2023-02-28T05:50:02;-1.50;99.90
25250;DHT22;13201;51.148;13.738;2023-02-28T05:52:28;-1.60;99.90
25250;DHT22;13201;51.148;13.738;2023-02-28T05:54:55;-1.60;99.90
25250;DHT22;13201;51.148;13.738;2023-02-28T05:57:22;-1.50;99.90
25250;DHT22;13201;51.148;13.738;2023-02-28T05:59:47;-1.50;99.90
25250;DHT22;13201;51.148;13.738;2023-02-28T06:02:15;-1.60;99.90
25250;DHT22;13201;51.148;13.738;2023-02-28T06:04:42;-1.60;99.90
25250;DHT22;13201;51.148;13.738;2023-02-28T06:07:08;-1.70;99.90
25250;DHT22;13201;51.148;13.738;2023-02-28T06:09:34;-1.60;99.90
25250;DHT22;13201;51.148;13.738;2023-02-28T06:12:01;-1.60;99.90
25250;DHT22;13201;51.148;13.738;2023-02-28T06:14:29;-1.60;99.90
25250;DHT22;13201;51.148;13.738;2023-02-28T06:16:56;-1.60;99.90
25250;DHT22;13201;51.148;13.738;2023-02-28T06:19:22;-1.70;99.90
25250;DHT22;13201;51.148;13.738;2023-02-28T06:21:51;-1.70;99.90
25250;DHT22;13201;51.148;13.738;2023-02-28T06:24:19;-1.70;99.90
25250;DHT22;13201;51.148;13.738;2023-02-28T06:26:44;-1.70;99.90
25250;DHT22;13201;51.148;13.738;2023-02-28T06:29:10;-1.80;99.90
25250;DHT22;13201;51.148;13.738;2023-02-28T06:31:36;-1.70;99.90
25250;DHT22;13201;51.148;13.738;2023-02-28T06:34:02;-1.60;99.90
25250;DHT22;13201;51.148;13.738;2023-02-28T06:36:27;-1.60;99.90
25250;DHT22;13201;51.148;13.738;2023-02-28T06:38:53;-1.60;99.90
25250;DHT22;13201;51.148;13.738;2023-02-28T06:41:24;-1.70;99.90
25250;DHT22;13201;51.148;13.738;2023-02-28T06:43:50;-1.60;99.90
25250;DHT22;13201;51.148;13.738;2023-02-28T06:46:15;-1.60;99.90
25250;DHT22;13201;51.148;13.738;2023-02-28T06:48:43;-1.50;99.90
25250;DHT22;13201;51.148;13.738;2023-02-28T06:51:15;-1.50;99.90
25250;DHT22;13201;51.148;13.738;2023-02-28T06:53:41;-1.40;99.90
25250;DHT22;13201;51.148;13.738;2023-02-28T06:56:09;-1.40;99.90
25250;DHT22;13201;51.148;13.738;2023-02-28T06:58:35;-1.30;99.90
25250;DHT22;13201;51.148;13.738;2023-02-28T07:01:02;-1.30;99.90
25250;DHT22;13201;51.148;13.738;2023-02-28T07:03:28;-1.20;99.90
25250;DHT22;13201;51.148;13.738;2023-02-28T07:05:54;-1.20;99.90
25250;DHT22;13201;51.148;13.738;2023-02-28T07:08:25;-1.10;99.90
25250;DHT22;13201;51.148;13.738;2023-02-28T07:10:53;-1.00;99.90
25250;DHT22;13201;51.148;13.738;2023-02-28T07:13:19;-0.90;99.90
25250;DHT22;13201;51.148;13.738;2023-02-28T07:15:52;-0.80;99.90
25250;DHT22;13201;51.148;13.738;2023-02-28T07:18:17;-0.80;99.90
25250;DHT22;13201;51.148;13.738;2023-02-28T07:20:43;-0.80;99.90
25250;DHT22;13201;51.148;13.738;2023-02-28T07:23:09;-0.70;99.90
25250;DHT22;13201;51.148;13.738;2023-02-28T07:25:34;-0.60;99.90
25250;DHT22;13201;51.148;13.738;2023-02-28T07:28:00;-0.50;99.90
25250;DHT22;13201;51.148;13.738;2023-02-28T07:30:26;-0.40;99.90
25250;DHT22;13201;51.148;13.738;2023-02-28T07:32:51;-0.40;99.90
25250;DHT22;13201;51.148;13.738;2023-02-28T07:35:17;-0.30;99.90
25250;DHT22;13201;51.148;13.738;2023-02-28T07:37:43;-0.20;99.90
25250;DHT22;13201;51.148;13.738;2023-02-28T07:40:11;-0.20;99.90
25250;DHT22;13201;51.148;13.738;2023-02-28T07:42:37;-0.20;99.90
25250;DHT22;13201;51.148;13.738;2023-02-28T07:45:03;-0.20;99.90
25250;DHT22;13201;51.148;13.738;2023-02-28T07:47:30;0.00;99.90
25250;DHT22;13201;51.148;13.738;2023-02-28T07:49:56;-0.10;99.90
25250;DHT22;13201;51.148;13.738;2023-02-28T07:52:21;0.10;99.90
25250;DHT22;13201;51.148;13.738;2023-02-28T07:54:49;0.20;99.90
25250;DHT22;13201;51.148;13.738;2023-02-28T07:57:15;0.30;99.90
25250;DHT22;13201;51.148;13.738;2023-02-28T07:59:41;0.30;99.90
25250;DHT22;13201;51.148;13.738;2023-02-28T08:02:15;0.40;99.90
25250;DHT22;13201;51.148;13.738;2023-02-28T08:04:41;0.50;99.90
25250;DHT22;13201;51.148;13.738;2023-02-28T08:07:07;0.50;99.90
25250;DHT22;13201;51.148;13.738;2023-02-28T08:09:33;0.60;99.90
25250;DHT22;13201;51.148;13.738;2023-02-28T08:11:59;0.60;99.90
25250;DHT22;13201;51.148;13.738;2023-02-28T08:14:26;0.70;99.90
25250;DHT22;13201;51.148;13.738;2023-02-28T08:16:52;0.90;99.90
25250;DHT22;13201;51.148;13.738;2023-02-28T08:19:17;1.00;99.90
25250;DHT22;13201;51.148;13.738;2023-02-28T08:21:43;1.10;99.90
25250;DHT22;13201;51.148;13.738;2023-02-28T08:24:09;1.30;99.90
25250;DHT22;13201;51.148;13.738;2023-02-28T08:26:34;1.30;99.90
25250;DHT22;13201;51.148;13.738;2023-02-28T08:29:00;1.30;99.90
25250;DHT22;13201;51.148;13.738;2023-02-28T08:31:26;1.30;99.90
25250;DHT22;13201;51.148;13.738;2023-02-28T08:33:51;1.40;99.90
25250;DHT22;13201;51.148;13.738;2023-02-28T08:36:19;1.40;99.90
25250;DHT22;13201;51.148;13.738;2023-02-28T08:38:45;1.50;99.90
25250;DHT22;13201;51.148;13.738;2023-02-28T08:41:12;1.60;99.90
25250;DHT22;13201;51.148;13.738;2023-02-28T08:43:39;1.60;99.90
25250;DHT22;13201;51.148;13.738;2023-02-28T08:46:05;1.70;99.90
25250;DHT22;13201;51.148;13.738;2023-02-28T08:48:32;1.80;99.90
25250;DHT22;13201;51.148;13.738;2023-02-28T08:51:06;1.80;99.90
25250;DHT22;13201;51.148;13.738;2023-02-28T08:53:32;1.70;99.90
25250;DHT22;13201;51.148;13.738;2023-02-28T08:56:09;2.00;99.90
25250;DHT22;13201;51.148;13.738;2023-02-28T08:58:35;2.10;99.90
25250;DHT22;13201;51.148;13.738;2023-02-28T09:03:37;2.10;99.90
25250;DHT22;13201;51.148;13.738;2023-02-28T09:06:03;2.20;99.90
25250;DHT22;13201;51.148;13.738;2023-02-28T09:08:30;2.40;99.90
25250;DHT22;13201;51.148;13.738;2023-02-28T09:10:56;2.40;99.90
25250;DHT22;13201;51.148;13.738;2023-02-28T09:13:23;2.50;99.90
25250;DHT22;13201;51.148;13.738;2023-02-28T09:15:49;2.40;99.90
25250;DHT22;13201;51.148;13.738;2023-02-28T09:18:15;2.50;99.90
25250;DHT22;13201;51.148;13.738;2023-02-28T09:20:41;2.60;99.90
25250;DHT22;13201;51.148;13.738;2023-02-28T09:23:08;2.60;99.90
25250;DHT22;13201;51.148;13.738;2023-02-28T09:25:35;2.60;99.90
25250;DHT22;13201;51.148;13.738;2023-02-28T09:28:01;2.70;99.90
25250;DHT22;13201;51.148;13.738;2023-02-28T09:30:27;2.70;99.90
25250;DHT22;13201;51.148;13.738;2023-02-28T09:32:54;2.60;99.90
25250;DHT22;13201;51.148;13.738;2023-02-28T09:35:22;2.80;99.90
25250;DHT22;13201;51.148;13.738;2023-02-28T09:37:49;3.00;99.90
25250;DHT22;13201;51.148;13.738;2023-02-28T09:40:17;3.00;99.90
25250;DHT22;13201;51.148;13.738;2023-02-28T09:42:46;2.90;99.90
25250;DHT22;13201;51.148;13.738;2023-02-28T09:45:29;3.00;99.90
25250;DHT22;13201;51.148;13.738;2023-02-28T09:48:06;3.00;99.90
25250;DHT22;13201;51.148;13.738;2023-02-28T09:50:40;3.10;99.90
25250;DHT22;13201;51.148;13.738;2023-02-28T09:55:47;3.30;99.90
25250;DHT22;13201;51.148;13.738;2023-02-28T09:58:41;3.40;99.90
25250;DHT22;13201;51.148;13.738;2023-02-28T10:06:20;3.60;99.90
25250;DHT22;13201;51.148;13.738;2023-02-28T10:08:52;3.70;99.90
25250;DHT22;13201;51.148;13.738;2023-02-28T10:11:22;3.70;99.90
25250;DHT22;13201;51.148;13.738;2023-02-28T10:14:04;3.70;99.90
25250;DHT22;13201;51.148;13.738;2023-02-28T10:16:34;3.70;99.90
25250;DHT22;13201;51.148;13.738;2023-02-28T10:19:24;3.60;99.90
25250;DHT22;13201;51.148;13.738;2023-02-28T10:21:57;3.60;99.90
25250;DHT22;13201;51.148;13.738;2023-02-28T10:24:35;3.90;99.90
25250;DHT22;13201;51.148;13.738;2023-02-28T10:27:20;4.00;99.90
25250;DHT22;13201;51.148;13.738;2023-02-28T10:29:49;4.10;99.90
25250;DHT22;13201;51.148;13.738;2023-02-28T10:32:18;4.40;99.90
25250;DHT22;13201;51.148;13.738;2023-02-28T10:34:46;4.30;99.90
25250;DHT22;13201;51.148;13.738;2023-02-28T10:37:16;4.10;99.90
25250;DHT22;13201;51.148;13.738;2023-02-28T10:39:45;4.10;99.90
25250;DHT22;13201;51.148;13.738;2023-02-28T10:42:29;4.00;99.90
25250;DHT22;13201;51.148;13.738;2023-02-28T10:45:15;4.00;99.90
25250;DHT22;13201;51.148;13.738;2023-02-28T11:01:18;4.40;99.90
25250;DHT22;13201;51.148;13.738;2023-02-28T11:03:44;4.60;99.90
25250;DHT22;13201;51.148;13.738;2023-02-28T11:06:21;4.90;99.90
25250;DHT22;13201;51.148;13.738;2023-02-28T11:08:53;5.00;99.90
25250;DHT22;13201;51.148;13.738;2023-02-28T11:11:21;4.80;99.90
25250;DHT22;13201;51.148;13.738;2023-02-28T11:13:51;4.70;99.90
25250;DHT22;13201;51.148;13.738;2023-02-28T11:16:18;4.90;99.90
25250;DHT22;13201;51.148;13.738;2023-02-28T11:18:53;4.80;99.90
25250;DHT22;13201;51.148;13.738;2023-02-28T11:21:30;4.60;99.90
25250;DHT22;13201;51.148;13.738;2023-02-28T11:24:44;4.70;99.90
25250;DHT22;13201;51.148;13.738;2023-02-28T11:26:50;4.60;99.90
25250;DHT22;13201;51.148;13.738;2023-02-28T11:29:31;4.80;99.90
25250;DHT22;13201;51.148;13.738;2023-02-28T11:32:18;5.10;99.90
25250;DHT22;13201;51.148;13.738;2023-02-28T11:34:46;5.10;99.90
25250;DHT22;13201;51.148;13.738;2023-02-28T11:37:18;5.10;99.90
25250;DHT22;13201;51.148;13.738;2023-02-28T11:39:44;5.30;99.90
25250;DHT22;13201;51.148;13.738;2023-02-28T11:48:09;5.40;99.90
25250;DHT22;13201;51.148;13.738;2023-02-28T12:04:36;5.50;99.90
25250;DHT22;13201;51.148;13.738;2023-02-28T12:07:26;5.60;99.90
25250;DHT22;13201;51.148;13.738;2023-02-28T12:10:14;5.60;99.90
25250;DHT22;13201;51.148;13.738;2023-02-28T12:15:43;5.40;99.90
25250;DHT22;13201;51.148;13.738;2023-02-28T12:26:43;5.70;99.90
25250;DHT22;13201;51.148;13.738;2023-02-28T12:29:28;5.40;99.90
25250;DHT22;13201;51.148;13.738;2023-02-28T12:34:42;5.90;99.90
25250;DHT22;13201;51.148;13.738;2023-02-28T12:37:25;5.90;99.90
25250;DHT22;13201;51.148;13.738;2023-02-28T12:40:00;6.20;99.90
25250;DHT22;13201;51.148;13.738;2023-02-28T12:42:30;6.40;99.90
25250;DHT22;13201;51.148;13.738;2023-02-28T12:45:00;6.40;99.90
25250;DHT22;13201;51.148;13.738;2023-02-28T12:47:26;6.50;99.90
25250;DHT22;13201;51.148;13.738;2023-02-28T12:50:13;6.30;99.90
25250;DHT22;13201;51.148;13.738;2023-02-28T12:55:41;6.70;99.90
25250;DHT22;13201;51.148;13.738;2023-02-28T12:58:39;7.10;99.90
25250;DHT22;13201;51.148;13.738;2023-02-28T13:09:17;7.70;99.90
25250;DHT22;13201;51.148;13.738;2023-02-28T13:11:51;7.50;99.90
25250;DHT22;13201;51.148;13.738;2023-02-28T13:22:40;6.50;99.90
25250;DHT22;13201;51.148;13.738;2023-02-28T13:27:52;6.20;99.90
25250;DHT22;13201;51.148;13.738;2023-02-28T13:35:46;6.20;99.90
25250;DHT22;13201;51.148;13.738;2023-02-28T13:38:17;6.50;99.90
25250;DHT22;13201;51.148;13.738;2023-02-28T13:40:43;6.40;99.90
25250;DHT22;13201;51.148;13.738;2023-02-28T13:43:09;6.20;99.90
25250;DHT22;13201;51.148;13.738;2023-02-28T13:45:35;6.30;99.90
25250;DHT22;13201;51.148;13.738;2023-02-28T13:48:18;6.10;99.90
25250;DHT22;13201;51.148;13.738;2023-02-28T13:50:45;6.00;99.90
25250;DHT22;13201;51.148;13.738;2023-02-28T13:58:43;6.30;99.90
25250;DHT22;13201;51.148;13.738;2023-02-28T14:06:53;6.80;99.90
25250;DHT22;13201;51.148;13.738;2023-02-28T14:09:35;6.80;99.90
25250;DHT22;13201;51.148;13.738;2023-02-28T14:15:34;7.10;99.90
25250;DHT22;13201;51.148;13.738;2023-02-28T14:18:03;7.40;99.90
25250;DHT22;13201;51.148;13.738;2023-02-28T14:20:32;7.40;99.90
25250;DHT22;13201;51.148;13.738;2023-02-28T14:32:01;7.10;99.90
25250;DHT22;13201;51.148;13.738;2023-02-28T14:34:49;7.00;99.90
25250;DHT22;13201;51.148;13.738;2023-02-28T14:37:24;7.40;99.90
25250;DHT22;13201;51.148;13.738;2023-02-28T14:39:51;7.20;99.90
25250;DHT22;13201;51.148;13.738;2023-02-28T14:42:36;7.10;99.70
25250;DHT22;13201;51.148;13.738;2023-02-28T14:45:21;7.00;99.90
25250;DHT22;13201;51.148;13.738;2023-02-28T14:47:50;7.30;99.60
25250;DHT22;13201;51.148;13.738;2023-02-28T14:50:51;7.50;99.70
25250;DHT22;13201;51.148;13.738;2023-02-28T14:53:20;7.60;99.90
25250;DHT22;13201;51.148;13.738;2023-02-28T14:55:48;7.60;99.60
25250;DHT22;13201;51.148;13.738;2023-02-28T14:58:28;7.60;99.60
25250;DHT22;13201;51.148;13.738;2023-02-28T15:00:57;7.60;99.80
25250;DHT22;13201;51.148;13.738;2023-02-28T15:03:32;8.00;99.40
25250;DHT22;13201;51.148;13.738;2023-02-28T15:06:00;7.70;99.30
25250;DHT22;13201;51.148;13.738;2023-02-28T15:08:26;8.20;99.20
25250;DHT22;13201;51.148;13.738;2023-02-28T15:11:02;8.10;99.10
25250;DHT22;13201;51.148;13.738;2023-02-28T15:13:45;7.80;99.00
25250;DHT22;13201;51.148;13.738;2023-02-28T15:16:16;8.40;99.10
25250;DHT22;13201;51.148;13.738;2023-02-28T15:18:48;8.70;98.50
25250;DHT22;13201;51.148;13.738;2023-02-28T15:21:21;8.80;98.40
25250;DHT22;13201;51.148;13.738;2023-02-28T15:23:59;8.80;97.90
25250;DHT22;13201;51.148;13.738;2023-02-28T15:26:34;8.60;98.30
25250;DHT22;13201;51.148;13.738;2023-02-28T15:29:10;8.80;98.30
25250;DHT22;13201;51.148;13.738;2023-02-28T15:31:44;9.00;97.80
25250;DHT22;13201;51.148;13.738;2023-02-28T15:36:59;9.30;97.40
25250;DHT22;13201;51.148;13.738;2023-02-28T15:39:27;9.60;97.30
25250;DHT22;13201;51.148;13.738;2023-02-28T15:42:16;9.30;97.10
25250;DHT22;13201;51.148;13.738;2023-02-28T15:44:43;9.10;97.30
25250;DHT22;13201;51.148;13.738;2023-02-28T15:47:19;9.50;97.20
25250;DHT22;13201;51.148;13.738;2023-02-28T15:52:19;8.80;97.90
25250;DHT22;13201;51.148;13.738;2023-02-28T15:54:47;8.90;96.90
25250;DHT22;13201;51.148;13.738;2023-02-28T15:57:17;9.20;97.10
25250;DHT22;13201;51.148;13.738;2023-02-28T16:00:00;9.30;97.10
25250;DHT22;13201;51.148;13.738;2023-02-28T16:02:36;9.30;96.90
25250;DHT22;13201;51.148;13.738;2023-02-28T16:07:35;9.10;97.10
25250;DHT22;13201;51.148;13.738;2023-02-28T16:10:01;8.70;97.30
25250;DHT22;13201;51.148;13.738;2023-02-28T16:12:30;8.40;97.40
25250;DHT22;13201;51.148;13.738;2023-02-28T16:14:58;7.90;97.80
25250;DHT22;13201;51.148;13.738;2023-02-28T16:17:32;7.60;98.30
25250;DHT22;13201;51.148;13.738;2023-02-28T16:19:59;7.50;98.60
25250;DHT22;13201;51.148;13.738;2023-02-28T16:22:25;7.20;98.80
25250;DHT22;13201;51.148;13.738;2023-02-28T16:24:51;7.10;98.90
25250;DHT22;13201;51.148;13.738;2023-02-28T16:27:21;7.10;98.70
25250;DHT22;13201;51.148;13.738;2023-02-28T16:29:50;7.10;99.50
25250;DHT22;13201;51.148;13.738;2023-02-28T16:32:16;6.90;99.50
25250;DHT22;13201;51.148;13.738;2023-02-28T16:34:43;7.00;99.80
25250;DHT22;13201;51.148;13.738;2023-02-28T16:37:13;7.00;99.70
25250;DHT22;13201;51.148;13.738;2023-02-28T16:39:40;6.80;99.90
25250;DHT22;13201;51.148;13.738;2023-02-28T16:42:07;6.60;99.90
25250;DHT22;13201;51.148;13.738;2023-02-28T16:44:36;6.50;99.90
25250;DHT22;13201;51.148;13.738;2023-02-28T16:47:03;6.30;99.90
25250;DHT22;13201;51.148;13.738;2023-02-28T16:49:29;6.20;99.90
25250;DHT22;13201;51.148;13.738;2023-02-28T16:51:55;5.70;99.90
25250;DHT22;13201;51.148;13.738;2023-02-28T16:54:21;5.60;99.90
25250;DHT22;13201;51.148;13.738;2023-02-28T16:56:47;5.40;99.90
25250;DHT22;13201;51.148;13.738;2023-02-28T16:59:17;5.20;99.90
25250;DHT22;13201;51.148;13.738;2023-02-28T17:01:44;5.20;99.90
25250;DHT22;13201;51.148;13.738;2023-02-28T17:04:11;5.20;99.90
25250;DHT22;13201;51.148;13.738;2023-02-28T17:06:37;5.00;99.90
25250;DHT22;13201;51.148;13.738;2023-02-28T17:09:03;4.70;99.90
25250;DHT22;13201;51.148;13.738;2023-02-28T17:11:29;4.60;99.90
25250;DHT22;13201;51.148;13.738;2023-02-28T17:13:55;4.50;99.90
25250;DHT22;13201;51.148;13.738;2023-02-28T17:16:32;4.40;99.90
25250;DHT22;13201;51.148;13.738;2023-02-28T17:19:00;4.40;99.90
25250;DHT22;13201;51.148;13.738;2023-02-28T17:21:27;4.50;99.90
25250;DHT22;13201;51.148;13.738;2023-02-28T17:23:53;4.30;99.90
25250;DHT22;13201;51.148;13.738;2023-02-28T17:26:20;4.30;99.90
25250;DHT22;13201;51.148;13.738;2023-02-28T17:28:48;4.20;99.90
25250;DHT22;13201;51.148;13.738;2023-02-28T17:31:13;4.00;99.90
25250;DHT22;13201;51.148;13.738;2023-02-28T17:33:39;4.00;99.90
25250;DHT22;13201;51.148;13.738;2023-02-28T17:36:05;4.00;99.90
25250;DHT22;13201;51.148;13.738;2023-02-28T17:38:32;4.00;99.90
25250;DHT22;13201;51.148;13.738;2023-02-28T17:40:57;3.90;99.90
25250;DHT22;13201;51.148;13.738;2023-02-28T17:43:25;3.90;99.90
25250;DHT22;13201;51.148;13.738;2023-02-28T17:45:50;3.80;99.90
25250;DHT22;13201;51.148;13.738;2023-02-28T17:48:17;3.60;99.90
25250;DHT22;13201;51.148;13.738;2023-02-28T17:50:42;3.70;99.90
25250;DHT22;13201;51.148;13.738;2023-02-28T17:53:08;3.70;99.90
25250;DHT22;13201;51.148;13.738;2023-02-28T17:55:35;3.60;99.90
25250;DHT22;13201;51.148;13.738;2023-02-28T17:58:02;3.40;99.90
25250;DHT22;13201;51.148;13.738;2023-02-28T18:00:28;3.60;99.90
25250;DHT22;13201;51.148;13.738;2023-02-28T18:02:54;3.40;99.90
25250;DHT22;13201;51.148;13.738;2023-02-28T18:05:20;3.30;99.90
25250;DHT22;13201;51.148;13.738;2023-02-28T18:07:46;3.30;99.90
25250;DHT22;13201;51.148;13.738;2023-02-28T18:10:17;3.40;99.90
25250;DHT22;13201;51.148;13.738;2023-02-28T18:12:46;3.30;99.90
25250;DHT22;13201;51.148;13.738;2023-02-28T18:15:12;3.10;99.90
25250;DHT22;13201;51.148;13.738;2023-02-28T18:17:38;3.10;99.90
25250;DHT22;13201;51.148;13.738;2023-02-28T18:20:04;2.90;99.90
25250;DHT22;13201;51.148;13.738;2023-02-28T18:22:30;2.90;99.90
25250;DHT22;13201;51.148;13.738;2023-02-28T18:24:56;2.80;99.90
25250;DHT22;13201;51.148;13.738;2023-02-28T18:27:21;2.60;99.90
25250;DHT22;13201;51.148;13.738;2023-02-28T18:29:47;2.60;99.90
25250;DHT22;13201;51.148;13.738;2023-02-28T18:32:15;2.80;99.90
25250;DHT22;13201;51.148;13.738;2023-02-28T18:34:41;2.70;99.90
25250;DHT22;13201;51.148;13.738;2023-02-28T18:37:06;2.60;99.90
25250;DHT22;13201;51.148;13.738;2023-02-28T18:39:32;2.40;99.90
25250;DHT22;13201;51.148;13.738;2023-02-28T18:41:58;2.50;99.90
25250;DHT22;13201;51.148;13.738;2023-02-28T18:44:23;2.40;99.90